Time;durP1;ratioP1;P1;durP2;ratioP2;P2;SDS_P1;SDS_P2;PMS_P1;PMS_P2;Temp;Humidity;BMP_temperature;BMP_pressure;BME280_temperature;BME280_humidity;BME280_pressure;Samples;Min_cycle;Max_cycle;Signal;HPM_P1;HPM_P2
2023/04/03 00:00:36;;;;;;;1.58;0.60;;;;;;;3.26;100.00;102908.09;6276409;28;20052;-71
2023/04/03 00:03:37;;;;;;;2.28;0.90;;;;;;;3.27;100.00;102911.56;6276147;28;20059;-71
2023/04/03 00:06:40;;;;;;;4.47;0.50;;;;;;;3.22;100.00;102913.22;6275840;28;20049;-71
2023/04/03 00:09:42;;;;;;;4.50;0.70;;;;;;;3.22;100.00;102918.41;6275986;28;20060;-71
2023/04/03 00:12:43;;;;;;;1.27;0.63;;;;;;;3.19;100.00;102916.69;6275636;28;20045;-71
2023/04/03 00:15:45;;;;;;;2.55;0.73;;;;;;;3.15;100.00;102921.81;6275835;28;20055;-71
2023/04/03 00:18:46;;;;;;;0.73;0.40;;;;;;;3.13;100.00;102910.50;6275415;28;20052;-71
2023/04/03 00:21:50;;;;;;;2.70;0.60;;;;;;;3.10;100.00;102915.69;6275743;28;20057;-71
2023/04/03 00:24:51;;;;;;;4.05;0.65;;;;;;;3.07;100.00;102910.44;6275746;28;20053;-71
2023/04/03 00:27:53;;;;;;;0.50;0.43;;;;;;;2.99;100.00;102913.81;6275510;28;20052;-71
2023/04/03 00:30:54;;;;;;;1.65;0.70;;;;;;;2.91;100.00;102909.41;6275562;28;20056;-71
2023/04/03 00:33:55;;;;;;;0.82;0.50;;;;;;;2.85;100.00;102904.97;6275096;28;20044;-71
2023/04/03 00:36:59;;;;;;;2.17;0.70;;;;;;;2.83;100.00;102916.22;6275264;28;20052;-71
2023/04/03 00:40:01;;;;;;;5.47;0.70;;;;;;;2.76;100.00;102913.50;6275422;28;20045;-71
2023/04/03 00:43:02;;;;;;;0.95;0.52;;;;;;;2.67;100.00;102909.91;6275361;28;20055;-71
2023/04/03 00:46:04;;;;;;;11.27;1.75;;;;;;;2.64;100.00;102917.69;6275156;28;20049;-71
2023/04/03 00:49:06;;;;;;;1.55;0.73;;;;;;;2.49;100.00;102924.34;6274722;28;20353;-71
2023/04/03 00:52:13;;;;;;;1.00;0.57;;;;;;;2.54;100.00;102924.44;6275162;28;20053;-71
2023/04/03 00:55:15;;;;;;;0.77;0.38;;;;;;;2.52;100.00;102923.53;6275428;28;20053;-71
2023/04/03 00:58:19;;;;;;;1.15;0.50;;;;;;;2.59;100.00;102932.28;6274763;28;20052;-71
2023/04/03 01:01:23;;;;;;;3.13;0.70;;;;;;;2.61;100.00;102935.78;6270149;28;20127;-71
2023/04/03 01:04:28;;;;;;;1.30;0.60;;;;;;;2.51;100.00;102930.47;6274322;28;20037;-71
2023/04/03 01:07:33;;;;;;;1.60;0.80;;;;;;;2.46;100.00;102933.84;6274431;28;20068;-71
2023/04/03 01:10:35;;;;;;;1.58;0.65;;;;;;;2.39;100.00;102935.44;6274523;28;20357;-71
2023/04/03 01:13:36;;;;;;;1.05;0.50;;;;;;;2.33;100.00;102937.97;6275015;28;20052;-71
2023/04/03 01:16:38;;;;;;;0.55;0.38;;;;;;;2.34;100.00;102936.25;6274671;28;20464;-71
2023/04/03 01:19:48;;;;;;;1.27;1.02;;;;;;;2.27;100.00;102933.56;6274511;28;20048;-71
2023/04/03 01:22:57;;;;;;;8.95;0.90;;;;;;;2.18;100.00;102940.28;6270667;28;20041;-71
2023/04/03 01:25:58;;;;;;;3.23;1.13;;;;;;;2.06;100.00;102938.38;6277522;28;20060;-71
2023/04/03 01:29:00;;;;;;;4.47;1.42;;;;;;;2.04;100.00;102934.88;6279752;28;20056;-71
2023/04/03 01:32:04;;;;;;;0.85;0.50;;;;;;;2.08;100.00;102938.38;6279574;28;20452;-71
2023/04/03 01:35:09;;;;;;;1.50;0.88;;;;;;;2.10;100.00;102934.13;6279404;28;20442;-71
2023/04/03 01:38:10;;;;;;;7.00;0.77;;;;;;;2.10;100.00;102937.59;6279248;28;20060;-71
2023/04/03 01:41:11;;;;;;;3.55;0.88;;;;;;;2.15;100.00;102940.25;6279548;28;20060;-71
2023/04/03 01:44:13;;;;;;;4.40;1.10;;;;;;;2.08;100.00;102941.84;6279334;28;20045;-71
2023/04/03 01:47:16;;;;;;;1.60;1.00;;;;;;;2.08;100.00;102946.16;6278884;28;20048;-71
2023/04/03 01:50:17;;;;;;;2.38;0.85;;;;;;;2.05;100.00;102946.13;6278779;28;20049;-71
2023/04/03 01:53:19;;;;;;;1.23;0.50;;;;;;;2.05;100.00;102944.41;6279252;28;20049;-71
2023/04/03 01:56:20;;;;;;;1.58;0.65;;;;;;;2.00;100.00;102952.13;6278657;28;20060;-71
2023/04/03 01:59:22;;;;;;;0.85;0.57;;;;;;;2.02;100.00;102954.72;6278877;28;20045;-71
2023/04/03 02:02:25;;;;;;;5.15;0.70;;;;;;;1.99;100.00;102949.47;6278976;28;20055;-71
2023/04/03 02:05:26;;;;;;;6.05;1.13;;;;;;;1.86;100.00;102952.69;6278827;28;20049;-71
2023/04/03 02:08:27;;;;;;;2.00;1.17;;;;;;;1.90;100.00;102954.50;6278901;28;20052;-71
2023/04/03 02:11:29;;;;;;;1.23;0.40;;;;;;;1.90;100.00;102955.38;6278587;28;20441;-71
2023/04/03 02:14:30;;;;;;;1.95;0.52;;;;;;;1.88;100.00;102963.97;6278783;28;20134;-71
2023/04/03 02:17:33;;;;;;;1.63;0.43;;;;;;;1.81;100.00;102968.16;6278137;28;20052;-71
2023/04/03 02:20:34;;;;;;;3.42;0.90;;;;;;;1.82;100.00;102966.44;6278545;28;20056;-71
2023/04/03 02:23:36;;;;;;;0.73;0.50;;;;;;;1.77;100.00;102967.25;6278421;28;20335;-71
2023/04/03 02:26:38;;;;;;;7.20;0.63;;;;;;;1.67;100.00;102969.63;6278446;28;20468;-71
2023/04/03 02:29:39;;;;;;;1.27;0.70;;;;;;;1.64;100.00;102965.28;6278202;28;20049;-71
2023/04/03 02:32:43;;;;;;;2.75;0.60;;;;;;;1.55;100.00;102965.09;6277970;28;20398;-71
2023/04/03 02:35:46;;;;;;;1.50;0.82;;;;;;;1.56;100.00;102974.59;6277849;28;20179;-71
2023/04/03 02:38:48;;;;;;;5.15;0.80;;;;;;;1.52;100.00;102971.06;6277074;28;20354;-71
2023/04/03 02:41:49;;;;;;;0.82;0.80;;;;;;;1.50;100.00;102975.38;6278034;28;20052;-71
2023/04/03 02:44:50;;;;;;;2.40;0.70;;;;;;;1.35;100.00;102980.22;6277702;28;20052;-71
2023/04/03 02:47:53;;;;;;;1.55;0.75;;;;;;;1.42;100.00;102973.47;6269257;28;20056;-71
2023/04/03 02:50:55;;;;;;;3.17;0.75;;;;;;;1.37;100.00;102973.38;6277561;28;20052;-71
2023/04/03 02:53:56;;;;;;;0.85;0.55;;;;;;;1.30;100.00;102978.38;6276631;28;20056;-71
2023/04/03 02:56:59;;;;;;;1.50;0.35;;;;;;;1.25;100.00;102979.16;6276823;28;20053;-71
2023/04/03 03:00:00;;;;;;;0.52;0.30;;;;;;;1.29;100.00;102972.31;6277533;28;20060;-71
2023/04/03 03:03:03;;;;;;;0.55;0.55;;;;;;;1.27;100.00;102976.59;6276277;28;20052;-71
2023/04/03 03:06:07;;;;;;;2.05;0.63;;;;;;;1.16;100.00;102971.19;6276746;28;20040;-71
2023/04/03 03:09:08;;;;;;;3.35;0.45;;;;;;;1.13;100.00;102972.84;6276512;28;20045;-71
2023/04/03 03:12:10;;;;;;;3.50;0.80;;;;;;;1.13;100.00;102973.69;6276930;28;20429;-71
2023/04/03 03:15:11;;;;;;;0.52;0.50;;;;;;;1.20;100.00;102974.72;6276835;28;20346;-71
2023/04/03 03:18:14;;;;;;;1.85;0.80;;;;;;;1.19;100.00;102979.03;6276684;28;20719;-71
2023/04/03 03:21:16;;;;;;;1.65;0.70;;;;;;;1.16;100.00;102971.19;6276713;28;20052;-71
2023/04/03 03:24:17;;;;;;;1.48;0.55;;;;;;;1.11;100.00;102974.53;6276529;28;20045;-71
2023/04/03 03:27:19;;;;;;;3.80;0.80;;;;;;;1.15;100.00;102978.94;6276597;28;20045;-71
2023/04/03 03:30:20;;;;;;;1.27;0.43;;;;;;;1.12;100.00;102973.69;6276085;28;20051;-71
2023/04/03 03:33:23;;;;;;;0.90;0.52;;;;;;;1.10;100.00;102980.56;6275908;28;20081;-71
2023/04/03 03:36:25;;;;;;;2.00;0.70;;;;;;;1.04;100.00;102975.22;6276242;28;20421;-71
2023/04/03 03:39:26;;;;;;;0.68;0.45;;;;;;;1.02;100.00;102976.06;6276479;28;20045;-71
2023/04/03 03:42:27;;;;;;;1.15;0.70;;;;;;;1.12;100.00;102976.28;6275947;28;20049;-71
2023/04/03 03:45:29;;;;;;;1.73;0.60;;;;;;;1.08;100.00;102975.31;6276338;28;20116;-71
2023/04/03 03:48:32;;;;;;;1.15;0.60;;;;;;;1.06;100.00;102974.44;6254990;28;20064;-71
2023/04/03 03:51:33;;;;;;;0.88;0.38;;;;;;;1.11;100.00;102970.22;6254679;28;20574;-71
2023/04/03 03:54:34;;;;;;;1.10;0.70;;;;;;;1.15;100.00;102976.34;6253938;28;20044;-71
2023/04/03 03:57:36;;;;;;;0.63;0.43;;;;;;;1.19;100.00;102983.34;6253839;28;20036;-71
2023/04/03 04:00:37;;;;;;;0.90;0.50;;;;;;;1.17;100.00;102983.28;6253911;28;20238;-71
2023/04/03 04:03:40;;;;;;;1.15;0.40;;;;;;;1.15;100.00;102982.41;6255993;28;20036;-71
2023/04/03 04:06:41;;;;;;;2.55;0.70;;;;;;;1.06;100.00;102991.69;6253452;28;20667;-71
2023/04/03 04:09:43;;;;;;;4.75;0.73;;;;;;;1.04;100.00;102993.34;6252318;28;20052;-72
2023/04/03 04:12:44;;;;;;;1.92;0.75;;;;;;;0.89;100.00;102996.47;6254197;28;20048;-71
2023/04/03 04:15:46;;;;;;;1.85;0.73;;;;;;;0.92;100.00;102992.25;6253173;28;20495;-72
2023/04/03 04:18:48;;;;;;;4.75;1.35;;;;;;;0.87;100.00;102996.44;6255629;28;20040;-71
2023/04/03 04:21:50;;;;;;;2.05;0.73;;;;;;;0.86;100.00;103002.44;6255663;28;20052;-71
2023/04/03 04:24:51;;;;;;;3.10;0.60;;;;;;;0.89;100.00;103005.09;6253972;28;20037;-72
2023/04/03 04:27:52;;;;;;;6.88;1.35;;;;;;;0.88;100.00;103003.38;6254179;28;20056;-74
2023/04/03 04:30:54;;;;;;;0.73;0.40;;;;;;;0.90;100.00;103000.81;6254443;28;20072;-71
2023/04/03 04:33:57;;;;;;;0.75;0.43;;;;;;;0.85;100.00;103000.69;6255501;28;20047;-71
2023/04/03 04:36:58;;;;;;;3.15;0.80;;;;;;;0.83;100.00;103004.97;6254470;28;20045;-71
2023/04/03 04:40:00;;;;;;;3.95;0.85;;;;;;;0.83;100.00;103011.88;6254118;28;20053;-71
2023/04/03 04:43:01;;;;;;;1.77;0.63;;;;;;;0.86;100.00;103014.50;6254014;28;20053;-71
2023/04/03 04:46:04;;;;;;;0.50;0.50;;;;;;;0.85;100.00;103018.81;6257926;28;20045;-71
2023/04/03 04:49:07;;;;;;;2.92;0.55;;;;;;;0.85;100.00;103023.13;6274678;28;20049;-71
2023/04/03 04:52:09;;;;;;;0.57;0.50;;;;;;;0.85;100.00;103025.72;6274792;28;20049;-71
2023/04/03 04:55:10;;;;;;;2.70;0.88;;;;;;;0.80;100.00;103024.72;6274657;28;20055;-71
2023/04/03 04:58:12;;;;;;;1.00;0.60;;;;;;;0.79;100.00;103023.84;6274943;28;20041;-71
2023/04/03 05:01:13;;;;;;;5.68;0.95;;;;;;;0.75;100.00;103032.38;6277997;28;20056;-71
2023/04/03 05:04:16;;;;;;;1.33;0.75;;;;;;;0.74;100.00;103036.69;6280023;28;20052;-71
2023/04/03 05:07:17;;;;;;;1.27;1.05;;;;;;;0.74;100.00;103035.81;6279657;28;20049;-71
2023/04/03 05:10:19;;;;;;;4.40;0.85;;;;;;;0.68;100.00;103041.72;6279813;28;20048;-71
2023/04/03 05:13:21;;;;;;;1.17;0.70;;;;;;;0.58;100.00;103038.84;6279850;28;20045;-71
2023/04/03 05:16:22;;;;;;;2.15;0.98;;;;;;;0.64;100.00;103037.31;6279481;28;20044;-71
2023/04/03 05:19:25;;;;;;;3.10;0.60;;;;;;;0.64;100.00;103034.72;6279231;28;20044;-71
2023/04/03 05:22:26;;;;;;;2.17;1.13;;;;;;;0.63;100.00;103037.25;6279526;28;20045;-71
2023/04/03 05:25:28;;;;;;;2.95;0.60;;;;;;;0.66;100.00;103045.09;6279599;28;20045;-71
2023/04/03 05:28:29;;;;;;;1.65;0.57;;;;;;;0.65;100.00;103046.81;6279342;28;20056;-71
2023/04/03 05:31:31;;;;;;;0.98;0.60;;;;;;;0.63;100.00;103047.59;6279232;28;20437;-71
2023/04/03 05:34:33;;;;;;;1.58;0.68;;;;;;;0.62;100.00;103048.44;6279358;28;20056;-73
2023/04/03 05:37:35;;;;;;;1.35;0.82;;;;;;;0.55;100.00;103052.59;6278922;28;20048;-71
2023/04/03 05:40:37;;;;;;;5.68;0.98;;;;;;;0.62;100.00;103053.63;6279020;28;20433;-71
2023/04/03 05:43:39;;;;;;;3.58;0.75;;;;;;;0.69;100.00;103052.94;6278453;28;20052;-71
2023/04/03 05:46:41;;;;;;;0.77;0.50;;;;;;;0.73;100.00;103052.19;6278322;28;20049;-72
2023/04/03 05:49:45;;;;;;;2.42;0.82;;;;;;;0.73;100.00;103058.25;6276690;28;20129;-73
2023/04/03 05:52:49;;;;;;;1.73;0.77;;;;;;;0.70;100.00;103062.44;6278273;28;20047;-71
2023/04/03 05:55:50;;;;;;;4.22;0.80;;;;;;;0.73;100.00;103065.13;6278151;28;20072;-71
2023/04/03 05:58:52;;;;;;;2.55;0.80;;;;;;;0.73;100.00;103072.88;6278549;28;20076;-71
2023/04/03 06:01:53;;;;;;;3.53;1.10;;;;;;;0.74;100.00;103079.81;6277936;28;20053;-72
2023/04/03 06:04:56;;;;;;;2.33;0.93;;;;;;;0.76;100.00;103076.41;6278417;28;20052;-72
2023/04/03 06:07:58;;;;;;;0.90;0.50;;;;;;;0.70;100.00;103084.03;6277932;28;20056;-71
2023/04/03 06:10:59;;;;;;;2.90;0.65;;;;;;;0.76;100.00;103080.72;6277957;28;20053;-72
2023/04/03 06:14:00;;;;;;;3.53;0.65;;;;;;;0.80;100.00;103089.44;6278492;28;20044;-72
2023/04/03 06:17:02;;;;;;;3.10;0.70;;;;;;;0.88;100.00;103091.38;6277871;28;20280;-71
2023/04/03 06:20:06;;;;;;;0.30;0.30;;;;;;;0.93;100.00;103092.34;6278051;28;20069;-72
2023/04/03 06:23:07;;;;;;;4.35;1.88;;;;;;;0.98;100.00;103089.88;6278236;28;20080;-72
2023/04/03 06:26:09;;;;;;;7.13;0.50;;;;;;;1.01;100.00;103093.41;6278165;28;20120;-71
2023/04/03 06:29:10;;;;;;;1.17;0.60;;;;;;;1.07;100.00;103095.28;6277912;28;20047;-72
2023/04/03 06:32:11;;;;;;;4.15;0.88;;;;;;;1.16;100.00;103092.91;6278128;28;20052;-71
2023/04/03 06:35:14;;;;;;;2.40;1.10;;;;;;;1.20;100.00;103099.03;6277868;28;20047;-71
2023/04/03 06:38:16;;;;;;;3.80;0.93;;;;;;;1.23;100.00;103100.00;6277781;28;20045;-72
2023/04/03 06:41:17;;;;;;;1.17;0.60;;;;;;;1.31;100.00;103099.28;6277651;28;20048;-72
2023/04/03 06:44:19;;;;;;;0.95;0.60;;;;;;;1.21;100.00;103099.06;6277697;28;20037;-72
2023/04/03 06:47:20;;;;;;;1.05;0.65;;;;;;;1.19;100.00;103111.09;6277501;28;20044;-72
2023/04/03 06:50:23;;;;;;;7.97;0.65;;;;;;;1.17;100.00;103117.94;6277038;28;20044;-72
2023/04/03 06:53:24;;;;;;;1.55;0.68;;;;;;;1.31;100.00;103127.75;6277185;28;20071;-72
2023/04/03 06:56:27;;;;;;;0.88;0.63;;;;;;;1.39;100.00;103127.09;6276950;28;20044;-72
2023/04/03 06:59:28;;;;;;;1.67;0.73;;;;;;;1.50;100.00;103128.22;6277456;28;20048;-72
2023/04/03 07:02:30;;;;;;;9.98;1.73;;;;;;;1.59;100.00;103124.06;6277086;28;20045;-72
2023/04/03 07:05:33;;;;;;;0.93;0.40;;;;;;;1.65;100.00;103132.00;6277059;28;20040;-72
2023/04/03 07:08:35;;;;;;;7.72;0.75;;;;;;;1.78;100.00;103131.44;6277118;28;20041;-72
2023/04/03 07:11:36;;;;;;;0.55;0.52;;;;;;;1.78;100.00;103134.91;6276993;28;20357;-72
2023/04/03 07:14:38;;;;;;;3.42;0.70;;;;;;;1.80;100.00;103134.03;6276991;28;20132;-72
2023/04/03 07:17:40;;;;;;;1.80;0.73;;;;;;;1.95;100.00;103126.56;6262937;28;20045;-72
2023/04/03 07:20:42;;;;;;;4.88;0.85;;;;;;;2.01;100.00;103134.50;6268115;28;20049;-72
2023/04/03 07:23:44;;;;;;;1.48;0.90;;;;;;;2.06;100.00;103144.97;6267939;28;20060;-72
2023/04/03 07:26:50;;;;;;;1.52;0.75;;;;;;;2.11;100.00;103144.22;6276647;28;20041;-73
2023/04/03 07:29:51;;;;;;;1.33;0.47;;;;;;;2.17;100.00;103148.66;6262343;28;20060;-71
2023/04/03 07:32:53;;;;;;;3.08;1.02;;;;;;;2.30;100.00;103145.44;6273871;28;20045;-72
2023/04/03 07:35:55;;;;;;;1.92;1.00;;;;;;;2.32;100.00;103148.06;6271969;28;20045;-71
2023/04/03 07:38:57;;;;;;;6.75;0.70;;;;;;;2.42;100.00;103153.47;6269704;28;20056;-72
2023/04/03 07:41:59;;;;;;;1.25;0.60;;;;;;;2.44;100.00;103153.50;6267323;28;20487;-73
2023/04/03 07:45:00;;;;;;;4.55;1.15;;;;;;;2.47;99.82;103153.56;6271829;28;20059;-72
2023/04/03 07:48:02;;;;;;;2.33;1.08;;;;;;;2.58;96.69;103165.00;6266935;28;20057;-72
2023/04/03 07:51:06;;;;;;;7.15;0.80;;;;;;;2.54;95.88;103158.91;6270374;28;20440;-73
2023/04/03 07:54:07;;;;;;;2.85;1.00;;;;;;;2.68;95.77;103155.66;6270328;28;20124;-73
2023/04/03 07:57:09;;;;;;;2.90;0.63;;;;;;;2.74;93.79;103148.00;6275536;28;20045;-74
2023/04/03 08:00:14;;;;;;;0.40;0.40;;;;;;;2.91;93.08;103159.56;6266207;28;20453;-75
2023/04/03 08:03:17;;;;;;;5.60;0.60;;;;;;;3.00;90.93;103156.25;6273683;28;20047;-75
2023/04/03 08:06:20;;;;;;;0.90;0.22;;;;;;;3.08;90.57;103162.44;6272782;28;20043;-73
2023/04/03 08:09:21;;;;;;;5.32;0.75;;;;;;;3.16;90.19;103158.25;6275631;28;20056;-74
2023/04/03 08:12:23;;;;;;;2.28;0.70;;;;;;;3.26;89.17;103160.13;6275564;28;20068;-74
2023/04/03 08:15:25;;;;;;;1.30;0.63;;;;;;;3.32;89.80;103156.78;6275697;28;20456;-74
2023/04/03 08:18:26;;;;;;;5.53;0.63;;;;;;;3.40;88.59;103159.47;6275199;28;20045;-74
2023/04/03 08:21:29;;;;;;;0.85;0.38;;;;;;;3.40;83.83;103156.88;6275215;28;20040;-74
2023/04/03 08:24:31;;;;;;;0.30;0.30;;;;;;;3.50;83.80;103150.97;6275416;28;20044;-74
2023/04/03 08:27:32;;;;;;;6.05;0.90;;;;;;;3.55;80.86;103147.59;6275057;28;20056;-74
2023/04/03 08:30:34;;;;;;;0.80;0.40;;;;;;;3.68;80.58;103147.75;6275229;28;20045;-74
2023/04/03 08:33:36;;;;;;;0.88;0.40;;;;;;;3.75;78.06;103147.88;6274725;28;20456;-74
2023/04/03 08:36:39;;;;;;;0.90;0.60;;;;;;;3.74;78.24;103147.84;6272515;28;20041;-73
2023/04/03 08:39:41;;;;;;;0.40;0.30;;;;;;;3.79;79.44;103147.06;6269935;28;20055;-74
2023/04/03 08:42:52;;;;;;;0.60;0.40;;;;;;;3.90;77.44;103133.31;6273123;28;20052;-72
2023/04/03 08:45:56;;;;;;;6.95;1.15;;;;;;;4.01;79.36;103139.53;6274606;28;20049;-71
2023/04/03 08:48:59;;;;;;;3.15;0.70;;;;;;;4.20;76.92;103138.03;6274401;28;20426;-71
2023/04/03 08:52:11;;;;;;;0.57;0.43;;;;;;;4.26;75.10;103138.09;6273903;28;20182;-71
2023/04/03 08:55:23;;;;;;;0.25;0.10;;;;;;;4.29;74.96;103133.78;6274561;28;20053;-72
2023/04/03 08:58:27;;;;;;;1.58;0.30;;;;;;;4.48;74.56;103131.38;6273062;28;20049;-72
2023/04/03 09:01:35;;;;;;;3.97;0.28;;;;;;;4.47;74.42;103127.03;6272258;28;20048;-71
2023/04/03 09:04:37;;;;;;;0.70;0.57;;;;;;;4.58;73.81;103131.47;6269586;28;20048;-73
2023/04/03 09:07:44;;;;;;;3.85;2.00;;;;;;;4.57;74.00;103126.28;6267167;28;20364;-71
2023/04/03 09:10:45;;;;;;;1.13;0.75;;;;;;;4.65;71.30;103128.97;6271148;28;20048;-73
2023/04/03 09:13:55;;;;;;;1.35;0.73;;;;;;;4.65;71.59;103122.00;6274341;28;20049;-74
2023/04/03 09:16:58;;;;;;;3.97;1.10;;;;;;;4.80;69.48;103124.75;6273931;28;20046;-74
2023/04/03 09:20:10;;;;;;;1.05;0.55;;;;;;;4.87;69.70;103124.81;6271586;28;20040;-74
2023/04/03 09:23:22;;;;;;;0.52;0.40;;;;;;;4.93;68.32;103115.31;6273584;28;20052;-75
2023/04/03 09:26:27;;;;;;;0.45;0.38;;;;;;;4.92;68.00;103112.69;6271874;28;20336;-75
2023/04/03 09:29:28;;;;;;;4.78;0.40;;;;;;;4.92;67.71;103118.78;6274183;28;20048;-75
2023/04/03 09:32:32;;;;;;;5.57;0.30;;;;;;;4.91;65.98;103106.63;6273961;28;20053;-75
2023/04/03 09:35:36;;;;;;;4.32;0.40;;;;;;;5.02;64.09;103123.19;6273327;28;20053;-74
2023/04/03 09:38:39;;;;;;;5.15;0.60;;;;;;;5.10;65.87;103120.66;6272328;28;20048;-75
2023/04/03 09:41:40;;;;;;;0.70;0.32;;;;;;;5.17;66.21;103114.63;6273838;28;20059;-73
2023/04/03 09:44:42;;;;;;;1.10;0.43;;;;;;;5.24;62.79;103110.34;6273871;28;20048;-77
2023/04/03 09:47:44;;;;;;;3.97;1.23;;;;;;;5.19;62.00;103112.91;6275617;28;20056;-76
2023/04/03 09:50:58;;;;;;;3.35;1.27;;;;;;;5.25;61.82;103107.72;6278319;28;20045;-77
2023/04/03 09:54:32;;;;;;;1.15;0.60;;;;;;;5.35;61.53;103101.72;6271703;28;20051;-78
2023/04/03 09:57:34;;;;;;;2.53;0.73;;;;;;;5.46;60.41;103101.78;6275087;28;20326;-77
2023/04/03 10:00:38;;;;;;;2.03;0.50;;;;;;;5.55;58.72;103096.63;6276582;28;20056;-76
2023/04/03 10:03:46;;;;;;;0.55;0.32;;;;;;;5.62;59.76;103086.22;6278066;28;20097;-76
2023/04/03 10:06:49;;;;;;;0.85;0.20;;;;;;;5.74;58.64;103094.09;6275385;28;20433;-77
2023/04/03 10:09:57;;;;;;;1.52;0.43;;;;;;;5.89;61.01;103090.69;6275966;28;20057;-78
2023/04/03 10:13:06;;;;;;;2.60;0.60;;;;;;;6.10;58.67;103093.41;6278205;28;20056;-77
2023/04/03 10:16:12;;;;;;;0.68;0.38;;;;;;;6.04;57.22;103082.94;6272760;28;20240;-76
2023/04/03 10:19:35;;;;;;;0.73;0.30;;;;;;;6.20;60.63;103076.91;6277792;28;20559;-76
2023/04/03 10:22:47;;;;;;;2.03;0.30;;;;;;;6.46;60.53;103076.94;6270255;28;20430;-77
2023/04/03 10:26:04;;;;;;;2.67;0.57;;;;;;;6.73;58.90;103070.00;6274520;28;20060;-77
2023/04/03 10:29:12;;;;;;;1.77;0.65;;;;;;;6.80;59.04;103069.13;6273609;28;20170;-77
2023/04/03 10:32:28;;;;;;;1.10;0.52;;;;;;;6.92;60.75;103071.72;6272883;28;20055;-77
2023/04/03 10:35:43;;;;;;;0.30;0.30;;;;;;;6.77;57.40;103066.53;6275644;28;20045;-78
2023/04/03 10:38:56;;;;;;;3.10;0.95;;;;;;;6.56;57.51;103059.53;6276235;28;20041;-78
2023/04/03 10:42:05;;;;;;;0.32;0.30;;;;;;;6.44;57.01;103059.53;6277016;28;20075;-78
2023/04/03 10:45:21;;;;;;;0.47;0.20;;;;;;;6.21;58.38;103056.88;6261929;28;20037;-77
2023/04/03 10:48:39;;;;;;;0.88;0.55;;;;;;;6.02;59.69;103049.00;6256664;28;20052;-77
2023/04/03 10:51:44;;;;;;;4.43;0.70;;;;;;;6.06;58.38;103049.88;6276576;28;20045;-78
2023/04/03 10:54:56;;;;;;;1.15;0.32;;;;;;;6.13;59.63;103048.16;6275053;28;20045;-78
2023/04/03 10:58:00;;;;;;;1.63;0.47;;;;;;;6.18;57.74;103046.44;6275894;28;20055;-77
2023/04/03 11:01:06;;;;;;;5.20;0.52;;;;;;;6.45;59.22;103043.88;6275758;28;20049;-77
2023/04/03 11:04:10;;;;;;;0.90;0.35;;;;;;;6.88;56.60;103036.00;6277387;28;20045;-78
2023/04/03 11:07:15;;;;;;;0.30;0.20;;;;;;;7.08;55.15;103034.22;6276772;28;20360;-77
2023/04/03 11:10:24;;;;;;;1.48;0.40;;;;;;;7.41;54.90;103032.41;6277256;28;20049;-77
2023/04/03 11:13:33;;;;;;;0.60;0.38;;;;;;;7.63;54.63;103027.97;6277032;28;20053;-77
2023/04/03 11:16:42;;;;;;;2.63;0.63;;;;;;;7.78;55.37;103019.19;6276964;28;20041;-77
2023/04/03 11:19:49;;;;;;;1.63;0.38;;;;;;;7.92;52.99;103013.88;6276554;28;20052;-77
2023/04/03 11:22:58;;;;;;;0.40;0.20;;;;;;;7.90;52.62;103008.63;6276731;28;20041;-77
2023/04/03 11:26:08;;;;;;;0.20;0.20;;;;;;;8.16;52.64;103018.94;6276701;28;20049;-78
2023/04/03 11:29:16;;;;;;;0.77;0.77;;;;;;;8.21;52.78;103016.28;6276615;28;20287;-77
2023/04/03 11:32:43;;;;;;;0.68;0.47;;;;;;;8.17;53.58;103011.94;6276642;28;20396;-78
2023/04/03 11:35:46;;;;;;;3.75;0.50;;;;;;;7.99;51.59;103013.78;6268456;28;20056;-78
2023/04/03 11:38:51;;;;;;;3.13;0.50;;;;;;;7.68;53.21;103010.50;6276482;28;20449;-78
2023/04/03 11:41:52;;;;;;;4.10;0.47;;;;;;;7.32;51.27;103004.53;6276558;28;20437;-77
2023/04/03 11:45:24;;;;;;;0.60;0.20;;;;;;;7.09;53.38;103007.22;6276191;28;20052;-77
2023/04/03 11:48:53;;;;;;;0.40;0.22;;;;;;;7.08;54.36;103008.06;6275710;28;20461;-76
2023/04/03 11:51:54;;;;;;;0.25;0.20;;;;;;;6.97;53.96;102994.19;6262833;28;20105;-76
2023/04/03 11:54:55;;;;;;;1.00;0.43;;;;;;;6.97;54.14;102996.78;6267722;28;20049;-76
2023/04/03 11:58:12;;;;;;;1.73;0.40;;;;;;;7.40;54.25;102994.03;6269589;28;20103;-76
2023/04/03 12:01:44;;;;;;;1.23;0.28;;;;;;;7.53;50.45;102987.88;6264062;28;20330;-76
2023/04/03 12:05:24;;;;;;;0.70;0.30;;;;;;;7.29;50.75;102986.22;6260371;28;20049;-76
2023/04/03 12:08:27;;;;;;;1.05;0.30;;;;;;;7.76;54.30;102993.00;6272014;28;20052;-76
2023/04/03 12:11:31;;;;;;;0.70;0.40;;;;;;;7.80;51.51;102988.59;6269633;28;20134;-71
2023/04/03 12:14:33;;;;;;;4.88;0.73;;;;;;;7.61;51.13;102983.47;6272976;28;20446;-71
2023/04/03 12:17:36;;;;;;;3.10;0.93;;;;;;;8.07;51.47;102980.59;6272273;28;20045;-71
2023/04/03 12:20:57;;;;;;;1.08;0.50;;;;;;;8.42;51.93;102973.38;6270984;28;20049;-71
2023/04/03 12:24:06;;;;;;;0.35;0.35;;;;;;;8.84;51.23;102962.47;6269106;28;20056;-72
2023/04/03 12:27:20;;;;;;;1.57;0.50;;;;;;;9.37;49.17;102962.75;6266549;28;20045;-71
2023/04/03 12:30:26;;;;;;;0.43;0.32;;;;;;;9.69;47.03;102956.22;6270081;28;20307;-72
2023/04/03 12:33:40;;;;;;;0.93;0.30;;;;;;;9.84;46.81;102962.09;6271937;28;20098;-72
2023/04/03 12:36:53;;;;;;;0.60;0.40;;;;;;;9.45;47.30;102946.88;6274887;28;20048;-72
2023/04/03 12:40:07;;;;;;;5.63;0.60;;;;;;;9.09;49.38;102952.59;6265065;28;20052;-72
2023/04/03 12:43:24;;;;;;;0.50;0.40;;;;;;;8.93;50.09;102950.16;6274451;28;20041;-72
2023/04/03 12:46:34;;;;;;;0.70;0.30;;;;;;;8.49;45.75;102947.09;6274006;28;20045;-72
2023/04/03 12:49:41;;;;;;;3.45;0.52;;;;;;;8.75;47.20;102933.72;6274900;28;20045;-73
2023/04/03 12:52:46;;;;;;;4.45;0.75;;;;;;;8.72;47.81;102930.28;6258738;28;20076;-73
2023/04/03 12:55:48;;;;;;;0.52;0.20;;;;;;;8.70;48.61;102926.81;6272694;28;20055;-73
2023/04/03 12:58:50;;;;;;;0.75;0.40;;;;;;;8.69;47.43;102918.09;6258142;28;20054;-72
2023/04/03 13:01:55;;;;;;;0.90;0.20;;;;;;;9.02;47.34;102916.81;6272924;28;20045;-73
2023/04/03 13:05:05;;;;;;;0.52;0.28;;;;;;;8.94;47.84;102918.66;6272429;28;20048;-73
2023/04/03 13:08:09;;;;;;;;;;;;;;;8.62;47.38;102913.78;6268790;28;20064;-73
2023/04/03 13:11:12;;;;;;;0.57;0.50;;;;;;;8.38;48.61;102921.00;6274041;28;19920;-73
2023/04/03 13:14:18;;;;;;;1.70;0.30;;;;;;;8.28;49.17;102921.94;6263408;28;20437;-73
2023/04/03 13:17:19;;;;;;;6.90;0.63;;;;;;;8.48;49.13;102913.91;6269731;28;20444;-74
2023/04/03 13:20:25;;;;;;;0.40;0.40;;;;;;;9.25;47.52;102908.66;6266172;28;20430;-72
2023/04/03 13:23:27;;;;;;;1.60;0.40;;;;;;;9.89;45.65;102905.09;6274360;28;20048;-72
2023/04/03 13:26:31;;;;;;;3.42;0.47;;;;;;;10.30;46.74;102897.47;6265943;28;20049;-73
2023/04/03 13:29:35;;;;;;;0.38;0.38;;;;;;;10.71;46.33;102893.19;6267810;28;20053;-73
2023/04/03 13:32:37;;;;;;;0.30;0.30;;;;;;;10.83;42.57;102896.47;6270593;28;20052;-72
2023/04/03 13:35:42;;;;;;;0.95;0.40;;;;;;;10.16;44.16;102888.03;6277244;28;20048;-72
2023/04/03 13:38:43;;;;;;;1.83;0.80;;;;;;;10.23;41.65;102885.31;6256260;28;20056;-73
2023/04/03 13:41:50;;;;;;;0.77;0.30;;;;;;;9.83;42.33;102888.59;6279234;28;20131;-73
2023/04/03 13:45:10;;;;;;;1.25;0.32;;;;;;;9.42;45.13;102886.59;6275141;28;20064;-74
2023/04/03 13:48:18;;;;;;;;;;;;;;;9.63;45.17;102886.28;6278653;28;20353;-72
2023/04/03 13:51:24;;;;;;;3.70;0.57;;;;;;;9.78;46.93;102880.78;6275449;28;19932;-73
2023/04/03 13:54:31;;;;;;;0.80;0.40;;;;;;;10.09;43.37;102886.41;6276147;28;20068;-73
2023/04/03 13:57:34;;;;;;;0.75;0.50;;;;;;;10.45;42.47;102877.94;6275208;28;20054;-73
2023/04/03 14:00:39;;;;;;;1.05;0.25;;;;;;;10.16;43.00;102879.28;6273705;28;20045;-73
2023/04/03 14:03:44;;;;;;;0.82;0.43;;;;;;;9.85;42.62;102871.03;6270261;28;20077;-72
2023/04/03 14:06:47;;;;;;;0.52;0.30;;;;;;;9.68;44.47;102867.84;6265539;28;20445;-72
2023/04/03 14:09:50;;;;;;;1.15;0.75;;;;;;;10.21;44.17;102863.44;6272045;28;20052;-71
2023/04/03 14:12:52;;;;;;;0.68;0.47;;;;;;;10.64;41.84;102867.03;6274690;28;20052;-72
2023/04/03 14:15:53;;;;;;;0.57;0.43;;;;;;;11.04;43.45;102860.09;6276159;28;20057;-72
2023/04/03 14:18:55;;;;;;;2.78;0.57;;;;;;;11.35;41.72;102862.91;6275357;28;20433;-72
2023/04/03 14:21:58;;;;;;;2.20;0.60;;;;;;;11.25;40.71;102856.97;6265260;28;20059;-72